Wind Star — C6CA9 — position and weather

sailwx.info

Track history (hours):
 
Tides and Currents Weather Stations Pressure Air Temp Water Temp Dewpoint Dewpoint Depression Visibility Wind Speed Wind Dir Waves Ship Positions

Wind Star

Operator: Holland America Line

Last reported at 2016-Aug-28 21:33 UTC. Time now 2016-Aug-30 01:21 UTC.
Position N 37°09' E 024°55'.

Length 134 m; draft 4.2 m.

Type: Passenger vessel. MMSI: 309163000.

Date/timePositionNaut miles runAvg speedWind from/ knotsBaromVisibWave heightAir tempDewpointWater temp
2016-Aug-28 21:33N 37°09' E 024°55'12 9.6
2016-Aug-28 20:20N 37°18' E 025°04'7 9.6
2016-Aug-28 19:33N 37°25' E 025°08'9 8.8
2016-Aug-28 18:33N 37°28' E 025°19'1 0.5
2016-Aug-28 17:32N 37°28' E 025°19'0 0.0
2016-Aug-28 16:29N 37°28' E 025°19'0 0.0
2016-Aug-28 15:32N 37°28' E 025°19'0 0.0
2016-Aug-28 14:32N 37°28' E 025°19'0 0.0
2016-Aug-28 13:32N 37°28' E 025°19'0 0.0
2016-Aug-28 12:32N 37°28' E 025°19'0 0.0
2016-Aug-28 11:32N 37°28' E 025°19'0 0.0
2016-Aug-28 10:29N 37°28' E 025°19'0 0.0
2016-Aug-28 09:32N 37°28' E 025°19'0 0.0
2016-Aug-28 08:32N 37°28' E 025°19'0 0.0
2016-Aug-28 07:32N 37°28' E 025°19'0 0.0
2016-Aug-28 06:29N 37°28' E 025°19'0 0.0
2016-Aug-28 05:32N 37°28' E 025°19'0 0.0
2016-Aug-28 04:33N 37°28' E 025°19'3 3.0
2016-Aug-28 03:33N 37°28' E 025°16'6 5.9
2016-Aug-28 02:33N 37°29' E 025°08'7 6.6
2016-Aug-28 01:33N 37°31' E 025°00'8 6.7
2016-Aug-28 00:26N 37°32' E 024°51'5 6.3
2016-Aug-27 23:33N 37°30' E 024°44'32 6.4
2016-Aug-27 18:33N 37°36' E 024°04'6 6.4
2016-Aug-27 17:33N 37°38' E 023°56'10 9.7
2016-Aug-27 16:33N 37°39' E 023°44'1010.1
2016-Aug-27 15:33N 37°47' E 023°37'9 9.4
2016-Aug-27 14:33N 37°56' E 023°38'0 0.2
2016-Aug-27 13:33N 37°56' E 023°38'0 0.0
2016-Aug-27 12:33N 37°56' E 023°38'0 0.0
2016-Aug-27 11:33N 37°56' E 023°38'0 0.0
2016-Aug-27 10:33N 37°56' E 023°38'0 0.0
2016-Aug-27 09:33N 37°56' E 023°38'0 0.0
2016-Aug-27 08:33N 37°56' E 023°38'0 0.0
2016-Aug-27 07:33N 37°56' E 023°38'0 0.0
2016-Aug-27 06:33N 37°56' E 023°38'0 0.0
2016-Aug-27 04:30N 37°56' E 023°38'2 1.7
2016-Aug-27 03:33N 37°55' E 023°37'6 5.8
2016-Aug-27 02:33N 37°50' E 023°40'9 9.3
2016-Aug-27 01:33N 37°41' E 023°45'7 7.1
2016-Aug-27 00:33N 37°34' E 023°46'7 6.8
2016-Aug-26 23:32N 37°27' E 023°44'7 6.7
2016-Aug-26 22:33N 37°21' E 023°42'15 6.7
2016-Aug-26 20:22N 37°10' E 023°30'7 7.7
2016-Aug-26 19:31N 37°09' E 023°22'7 7.4
2016-Aug-26 18:33N 37°09' E 023°13'7 7.0
2016-Aug-26 17:33N 37°09' E 023°04'21 8.4
2016-Aug-26 15:03N 37°27' E 022°51'7 8.8
2016-Aug-26 14:12N 37°34' E 022°47'1 0.8
2016-Aug-26 13:27N 37°34' E 022°48'0 0.0
2016-Aug-26 12:33N 37°34' E 022°48'0 0.0
2016-Aug-26 11:33N 37°34' E 022°48'0 0.0
2016-Aug-26 10:33N 37°34' E 022°48'0 0.0
2016-Aug-26 09:30N 37°34' E 022°48'0 0.0
2016-Aug-26 08:33N 37°34' E 022°48'0 0.0
2016-Aug-26 07:30N 37°34' E 022°48'0 0.0
2016-Aug-26 06:24N 37°34' E 022°48'0 0.0
2016-Aug-26 04:33N 37°34' E 022°48'4 3.0
2016-Aug-26 03:13N 37°30' E 022°49'13 6.2
2016-Aug-26 01:09N 37°19' E 022°57'4 6.0
2016-Aug-26 00:32N 37°16' E 022°59'8 6.0
2016-Aug-25 23:11N 37°09' E 023°04'3 5.3
2016-Aug-25 22:33N 37°08' E 023°08'7 6.3
2016-Aug-25 21:25N 37°06' E 023°17'6 6.3
2016-Aug-25 20:33N 37°05' E 023°24'  
2016-Aug-21 21:31N 37°08' E 024°54'9 9.8
2016-Aug-21 20:33N 37°16' E 024°60'10 9.8
2016-Aug-21 19:34N 37°23' E 025°08'9 8.8
2016-Aug-21 18:33N 37°28' E 025°17'2 1.5
2016-Aug-21 17:31N 37°27' E 025°19'0 0.0
2016-Aug-21 16:22N 37°27' E 025°19'0 0.1
2016-Aug-21 15:25N 37°27' E 025°19'0 0.0
2016-Aug-21 14:28N 37°27' E 025°19'0 0.0
2016-Aug-21 13:31N 37°27' E 025°19'0 0.0
2016-Aug-21 12:31N 37°27' E 025°19'0 0.0
2016-Aug-21 11:33N 37°27' E 025°19'0 0.0
2016-Aug-21 10:33N 37°27' E 025°19'0 0.0
2016-Aug-21 09:33N 37°27' E 025°19'0 0.0
2016-Aug-21 08:33N 37°27' E 025°19'0 0.0
2016-Aug-21 07:33N 37°27' E 025°19'0 0.0
2016-Aug-21 06:33N 37°27' E 025°19'0 0.0
2016-Aug-21 05:33N 37°27' E 025°19'0 0.0
2016-Aug-21 04:34N 37°27' E 025°19'2 2.4
2016-Aug-21 03:33N 37°28' E 025°16'6 5.5
2016-Aug-21 02:33N 37°29' E 025°09'6 6.1
2016-Aug-21 01:34N 37°30' E 025°02'9 6.6
2016-Aug-21 00:09N 37°31' E 024°50'4 6.4
2016-Aug-20 23:32N 37°31' E 024°46'37 7.0
2016-Aug-20 18:18N 37°38' E 024°00'7 9.2
2016-Aug-20 17:33N 37°38' E 023°52'9 9.2
2016-Aug-20 16:33N 37°42' E 023°41'1010.3
2016-Aug-20 15:33N 37°52' E 023°37'5 4.7
2016-Aug-20 14:32N 37°56' E 023°38'0 0.0
2016-Aug-20 13:32N 37°56' E 023°38'0 0.0
2016-Aug-20 12:32N 37°56' E 023°38'0 0.0
2016-Aug-20 11:32N 37°56' E 023°38'0 0.0
2016-Aug-20 10:32N 37°56' E 023°38'0 0.0
2016-Aug-20 09:32N 37°56' E 023°38'0 0.0
2016-Aug-20 08:32N 37°56' E 023°38'0 0.0
2016-Aug-20 07:32N 37°56' E 023°38'0 0.0
2016-Aug-20 06:32N 37°56' E 023°38'0 0.0
2016-Aug-20 05:32N 37°56' E 023°38'0 0.0
2016-Aug-20 04:32N 37°56' E 023°38'1 1.1
2016-Aug-20 03:33N 37°56' E 023°37'3 3.0
2016-Aug-20 02:33N 37°53' E 023°38'7 6.7
2016-Aug-20 01:33N 37°47' E 023°41'7 7.1
2016-Aug-20 00:33N 37°41' E 023°45'8 7.8
2016-Aug-19 23:33N 37°33' E 023°46'8 8.2
2016-Aug-19 22:32N 37°25' E 023°43'8 8.5
2016-Aug-19 21:33N 37°17' E 023°39'8 7.7
2016-Aug-19 20:33N 37°11' E 023°33'7 7.4
2016-Aug-19 19:33N 37°09' E 023°24'8 8.0
2016-Aug-19 18:32N 37°09' E 023°14'7 7.5
2016-Aug-19 17:33N 37°09' E 023°04'8 7.7
2016-Aug-19 16:33N 37°16' E 022°59'13 8.8
2016-Aug-19 15:05N 37°27' E 022°51'8 4.9
2016-Aug-19 13:29N 37°34' E 022°48'0 0.0
2016-Aug-19 12:32N 37°34' E 022°48'0 0.0
2016-Aug-19 11:29N 37°34' E 022°48'0 0.0
2016-Aug-19 10:32N 37°34' E 022°48'0 0.0
2016-Aug-19 09:23N 37°34' E 022°48'0 0.0
2016-Aug-19 08:26N 37°34' E 022°48'0 0.0
2016-Aug-19 07:23N 37°34' E 022°48'0 0.0
2016-Aug-19 06:32N 37°34' E 022°48'0 0.0
2016-Aug-19 05:32N 37°34' E 022°48'0 0.0
2016-Aug-19 04:33N 37°34' E 022°48'4 3.1
2016-Aug-19 03:19N 37°30' E 022°49'14 5.0
2016-Aug-19 00:33N 37°18' E 022°57'6 6.3
2016-Aug-18 23:33N 37°13' E 023°01'6 6.0
2016-Aug-18 22:33N 37°08' E 023°05'  
Track history (hours):
 
Tides and Currents Weather Stations Pressure Air Temp Water Temp Dewpoint Dewpoint Depression Visibility Wind Speed Wind Dir Waves Ship Positions

Wind Star

Operator: Holland America Line

Last reported at 2016-Aug-28 21:33 UTC. Time now 2016-Aug-30 01:21 UTC.
Position N 37°09' E 024°55'.

Length 134 m; draft 4.2 m.

Type: Passenger vessel. MMSI: 309163000.

Date/timePositionNaut miles runAvg speedWind from/ knotsBaromVisibWave heightAir tempDewpointWater temp
2016-Aug-28 21:33N 37°09' E 024°55'12 9.6
2016-Aug-28 20:20N 37°18' E 025°04'7 9.6
2016-Aug-28 19:33N 37°25' E 025°08'9 8.8
2016-Aug-28 18:33N 37°28' E 025°19'1 0.5
2016-Aug-28 17:32N 37°28' E 025°19'0 0.0
2016-Aug-28 16:29N 37°28' E 025°19'0 0.0
2016-Aug-28 15:32N 37°28' E 025°19'0 0.0
2016-Aug-28 14:32N 37°28' E 025°19'0 0.0
2016-Aug-28 13:32N 37°28' E 025°19'0 0.0
2016-Aug-28 12:32N 37°28' E 025°19'0 0.0
2016-Aug-28 11:32N 37°28' E 025°19'0 0.0
2016-Aug-28 10:29N 37°28' E 025°19'0 0.0
2016-Aug-28 09:32N 37°28' E 025°19'0 0.0
2016-Aug-28 08:32N 37°28' E 025°19'0 0.0
2016-Aug-28 07:32N 37°28' E 025°19'0 0.0
2016-Aug-28 06:29N 37°28' E 025°19'0 0.0
2016-Aug-28 05:32N 37°28' E 025°19'0 0.0
2016-Aug-28 04:33N 37°28' E 025°19'3 3.0
2016-Aug-28 03:33N 37°28' E 025°16'6 5.9
2016-Aug-28 02:33N 37°29' E 025°08'7 6.6
2016-Aug-28 01:33N 37°31' E 025°00'8 6.7
2016-Aug-28 00:26N 37°32' E 024°51'5 6.3
2016-Aug-27 23:33N 37°30' E 024°44'32 6.4
2016-Aug-27 18:33N 37°36' E 024°04'6 6.4
2016-Aug-27 17:33N 37°38' E 023°56'10 9.7
2016-Aug-27 16:33N 37°39' E 023°44'1010.1
2016-Aug-27 15:33N 37°47' E 023°37'9 9.4
2016-Aug-27 14:33N 37°56' E 023°38'0 0.2
2016-Aug-27 13:33N 37°56' E 023°38'0 0.0
2016-Aug-27 12:33N 37°56' E 023°38'0 0.0
2016-Aug-27 11:33N 37°56' E 023°38'0 0.0
2016-Aug-27 10:33N 37°56' E 023°38'0 0.0
2016-Aug-27 09:33N 37°56' E 023°38'0 0.0
2016-Aug-27 08:33N 37°56' E 023°38'0 0.0
2016-Aug-27 07:33N 37°56' E 023°38'0 0.0
2016-Aug-27 06:33N 37°56' E 023°38'0 0.0
2016-Aug-27 04:30N 37°56' E 023°38'2 1.7
2016-Aug-27 03:33N 37°55' E 023°37'6 5.8
2016-Aug-27 02:33N 37°50' E 023°40'9 9.3
2016-Aug-27 01:33N 37°41' E 023°45'7 7.1
2016-Aug-27 00:33N 37°34' E 023°46'7 6.8
2016-Aug-26 23:32N 37°27' E 023°44'7 6.7
2016-Aug-26 22:33N 37°21' E 023°42'15 6.7
2016-Aug-26 20:22N 37°10' E 023°30'7 7.7
2016-Aug-26 19:31N 37°09' E 023°22'7 7.4
2016-Aug-26 18:33N 37°09' E 023°13'7 7.0
2016-Aug-26 17:33N 37°09' E 023°04'21 8.4
2016-Aug-26 15:03N 37°27' E 022°51'7 8.8
2016-Aug-26 14:12N 37°34' E 022°47'1 0.8
2016-Aug-26 13:27N 37°34' E 022°48'0 0.0
2016-Aug-26 12:33N 37°34' E 022°48'0 0.0
2016-Aug-26 11:33N 37°34' E 022°48'0 0.0
2016-Aug-26 10:33N 37°34' E 022°48'0 0.0
2016-Aug-26 09:30N 37°34' E 022°48'0 0.0
2016-Aug-26 08:33N 37°34' E 022°48'0 0.0
2016-Aug-26 07:30N 37°34' E 022°48'0 0.0
2016-Aug-26 06:24N 37°34' E 022°48'0 0.0
2016-Aug-26 04:33N 37°34' E 022°48'4 3.0
2016-Aug-26 03:13N 37°30' E 022°49'13 6.2
2016-Aug-26 01:09N 37°19' E 022°57'4 6.0
2016-Aug-26 00:32N 37°16' E 022°59'8 6.0
2016-Aug-25 23:11N 37°09' E 023°04'3 5.3
2016-Aug-25 22:33N 37°08' E 023°08'7 6.3
2016-Aug-25 21:25N 37°06' E 023°17'6 6.3
2016-Aug-25 20:33N 37°05' E 023°24'  
2016-Aug-21 21:31N 37°08' E 024°54'9 9.8
2016-Aug-21 20:33N 37°16' E 024°60'10 9.8
2016-Aug-21 19:34N 37°23' E 025°08'9 8.8
2016-Aug-21 18:33N 37°28' E 025°17'2 1.5
2016-Aug-21 17:31N 37°27' E 025°19'0 0.0
2016-Aug-21 16:22N 37°27' E 025°19'0 0.1
2016-Aug-21 15:25N 37°27' E 025°19'0 0.0
2016-Aug-21 14:28N 37°27' E 025°19'0 0.0
2016-Aug-21 13:31N 37°27' E 025°19'0 0.0
2016-Aug-21 12:31N 37°27' E 025°19'0 0.0
2016-Aug-21 11:33N 37°27' E 025°19'0 0.0
2016-Aug-21 10:33N 37°27' E 025°19'0 0.0
2016-Aug-21 09:33N 37°27' E 025°19'0 0.0
2016-Aug-21 08:33N 37°27' E 025°19'0 0.0
2016-Aug-21 07:33N 37°27' E 025°19'0 0.0
2016-Aug-21 06:33N 37°27' E 025°19'0 0.0
2016-Aug-21 05:33N 37°27' E 025°19'0 0.0
2016-Aug-21 04:34N 37°27' E 025°19'2 2.4
2016-Aug-21 03:33N 37°28' E 025°16'6 5.5
2016-Aug-21 02:33N 37°29' E 025°09'6 6.1
2016-Aug-21 01:34N 37°30' E 025°02'9 6.6
2016-Aug-21 00:09N 37°31' E 024°50'4 6.4
2016-Aug-20 23:32N 37°31' E 024°46'37 7.0
2016-Aug-20 18:18N 37°38' E 024°00'7 9.2
2016-Aug-20 17:33N 37°38' E 023°52'9 9.2
2016-Aug-20 16:33N 37°42' E 023°41'1010.3
2016-Aug-20 15:33N 37°52' E 023°37'5 4.7
2016-Aug-20 14:32N 37°56' E 023°38'0 0.0
2016-Aug-20 13:32N 37°56' E 023°38'0 0.0
2016-Aug-20 12:32N 37°56' E 023°38'0 0.0
2016-Aug-20 11:32N 37°56' E 023°38'0 0.0
2016-Aug-20 10:32N 37°56' E 023°38'0 0.0
2016-Aug-20 09:32N 37°56' E 023°38'0 0.0
2016-Aug-20 08:32N 37°56' E 023°38'0 0.0
2016-Aug-20 07:32N 37°56' E 023°38'0 0.0
2016-Aug-20 06:32N 37°56' E 023°38'0 0.0
2016-Aug-20 05:32N 37°56' E 023°38'0 0.0
2016-Aug-20 04:32N 37°56' E 023°38'1 1.1
2016-Aug-20 03:33N 37°56' E 023°37'3 3.0
2016-Aug-20 02:33N 37°53' E 023°38'7 6.7
2016-Aug-20 01:33N 37°47' E 023°41'7 7.1
2016-Aug-20 00:33N 37°41' E 023°45'8 7.8
2016-Aug-19 23:33N 37°33' E 023°46'8 8.2
2016-Aug-19 22:32N 37°25' E 023°43'8 8.5
2016-Aug-19 21:33N 37°17' E 023°39'8 7.7
2016-Aug-19 20:33N 37°11' E 023°33'7 7.4
2016-Aug-19 19:33N 37°09' E 023°24'8 8.0
2016-Aug-19 18:32N 37°09' E 023°14'7 7.5
2016-Aug-19 17:33N 37°09' E 023°04'8 7.7
2016-Aug-19 16:33N 37°16' E 022°59'13 8.8
2016-Aug-19 15:05N 37°27' E 022°51'8 4.9
2016-Aug-19 13:29N 37°34' E 022°48'0 0.0
2016-Aug-19 12:32N 37°34' E 022°48'0 0.0
2016-Aug-19 11:29N 37°34' E 022°48'0 0.0
2016-Aug-19 10:32N 37°34' E 022°48'0 0.0
2016-Aug-19 09:23N 37°34' E 022°48'0 0.0
2016-Aug-19 08:26N 37°34' E 022°48'0 0.0
2016-Aug-19 07:23N 37°34' E 022°48'0 0.0
2016-Aug-19 06:32N 37°34' E 022°48'0 0.0
2016-Aug-19 05:32N 37°34' E 022°48'0 0.0
2016-Aug-19 04:33N 37°34' E 022°48'4 3.1
2016-Aug-19 03:19N 37°30' E 022°49'14 5.0
2016-Aug-19 00:33N 37°18' E 022°57'6 6.3
2016-Aug-18 23:33N 37°13' E 023°01'6 6.0
2016-Aug-18 22:33N 37°08' E 023°05'  

Dump ship's entire track history